sensor_id;sensor_type;location;lat;lon;timestamp;P1;durP1;ratioP1;P2;durP2;ratioP2
54823;SDS011;40724;53.196;5.980;2022-10-26T00:00:51;13.85;;;8.02;;
54823;SDS011;40724;53.196;5.980;2022-10-26T00:03:18;12.40;;;7.28;;
54823;SDS011;40724;53.196;5.980;2022-10-26T00:05:44;10.73;;;6.68;;
54823;SDS011;40724;53.196;5.980;2022-10-26T00:08:10;17.67;;;7.45;;
54823;SDS011;40724;53.196;5.980;2022-10-26T00:10:36;11.10;;;7.05;;
54823;SDS011;40724;53.196;5.980;2022-10-26T00:13:03;10.40;;;7.13;;
54823;SDS011;40724;53.196;5.980;2022-10-26T00:15:29;12.07;;;6.00;;
54823;SDS011;40724;53.196;5.980;2022-10-26T00:17:56;13.40;;;7.10;;
54823;SDS011;40724;53.196;5.980;2022-10-26T00:20:22;15.85;;;7.32;;
54823;SDS011;40724;53.196;5.980;2022-10-26T00:22:49;8.80;;;6.43;;
54823;SDS011;40724;53.196;5.980;2022-10-26T00:25:15;10.30;;;7.47;;
54823;SDS011;40724;53.196;5.980;2022-10-26T00:27:41;13.23;;;7.55;;
54823;SDS011;40724;53.196;5.980;2022-10-26T00:30:08;11.38;;;7.05;;
54823;SDS011;40724;53.196;5.980;2022-10-26T00:32:34;11.40;;;7.60;;
54823;SDS011;40724;53.196;5.980;2022-10-26T00:35:00;11.50;;;7.05;;
54823;SDS011;40724;53.196;5.980;2022-10-26T00:37:26;8.57;;;6.60;;
54823;SDS011;40724;53.196;5.980;2022-10-26T00:39:52;10.13;;;7.53;;
54823;SDS011;40724;53.196;5.980;2022-10-26T00:42:19;10.68;;;7.47;;
54823;SDS011;40724;53.196;5.980;2022-10-26T00:49:44;11.88;;;6.97;;
54823;SDS011;40724;53.196;5.980;2022-10-26T00:52:12;13.95;;;9.05;;
54823;SDS011;40724;53.196;5.980;2022-10-26T00:54:39;13.68;;;7.80;;
54823;SDS011;40724;53.196;5.980;2022-10-26T00:57:05;12.07;;;7.80;;
54823;SDS011;40724;53.196;5.980;2022-10-26T00:59:31;10.45;;;7.53;;
54823;SDS011;40724;53.196;5.980;2022-10-26T01:01:58;13.00;;;7.72;;
54823;SDS011;40724;53.196;5.980;2022-10-26T01:04:24;9.57;;;6.60;;
54823;SDS011;40724;53.196;5.980;2022-10-26T01:06:50;13.60;;;7.85;;
54823;SDS011;40724;53.196;5.980;2022-10-26T01:09:16;13.18;;;6.88;;
54823;SDS011;40724;53.196;5.980;2022-10-26T01:11:43;9.70;;;6.38;;
54823;SDS011;40724;53.196;5.980;2022-10-26T01:14:10;10.75;;;7.07;;
54823;SDS011;40724;53.196;5.980;2022-10-26T01:24:21;11.10;;;7.93;;
54823;SDS011;40724;53.196;5.980;2022-10-26T01:32:22;10.63;;;7.03;;
54823;SDS011;40724;53.196;5.980;2022-10-26T01:34:58;9.05;;;5.85;;
54823;SDS011;40724;53.196;5.980;2022-10-26T01:37:28;10.88;;;7.03;;
54823;SDS011;40724;53.196;5.980;2022-10-26T01:39:58;11.68;;;7.38;;
54823;SDS011;40724;53.196;5.980;2022-10-26T01:42:24;16.05;;;7.22;;
54823;SDS011;40724;53.196;5.980;2022-10-26T01:44:52;12.27;;;6.78;;
54823;SDS011;40724;53.196;5.980;2022-10-26T01:47:19;14.13;;;6.57;;
54823;SDS011;40724;53.196;5.980;2022-10-26T01:49:47;15.63;;;8.25;;
54823;SDS011;40724;53.196;5.980;2022-10-26T01:52:14;9.50;;;6.68;;
54823;SDS011;40724;53.196;5.980;2022-10-26T01:54:40;10.18;;;7.30;;
54823;SDS011;40724;53.196;5.980;2022-10-26T01:57:07;10.73;;;7.65;;
54823;SDS011;40724;53.196;5.980;2022-10-26T01:59:55;9.57;;;6.95;;
54823;SDS011;40724;53.196;5.980;2022-10-26T02:02:33;10.20;;;7.03;;
54823;SDS011;40724;53.196;5.980;2022-10-26T02:13:04;9.85;;;6.30;;
54823;SDS011;40724;53.196;5.980;2022-10-26T02:20:45;9.40;;;6.57;;
54823;SDS011;40724;53.196;5.980;2022-10-26T02:23:13;10.55;;;6.80;;
54823;SDS011;40724;53.196;5.980;2022-10-26T02:25:42;12.80;;;6.63;;
54823;SDS011;40724;53.196;5.980;2022-10-26T02:28:10;11.60;;;7.65;;
54823;SDS011;40724;53.196;5.980;2022-10-26T02:30:37;11.73;;;6.05;;
54823;SDS011;40724;53.196;5.980;2022-10-26T02:33:04;11.35;;;7.53;;
54823;SDS011;40724;53.196;5.980;2022-10-26T02:35:33;12.90;;;6.95;;
54823;SDS011;40724;53.196;5.980;2022-10-26T02:38:01;9.77;;;7.13;;
54823;SDS011;40724;53.196;5.980;2022-10-26T02:40:28;15.32;;;7.60;;
54823;SDS011;40724;53.196;5.980;2022-10-26T02:42:56;10.30;;;7.13;;
54823;SDS011;40724;53.196;5.980;2022-10-26T02:45:29;9.73;;;7.10;;
54823;SDS011;40724;53.196;5.980;2022-10-26T02:47:58;9.82;;;7.45;;
54823;SDS011;40724;53.196;5.980;2022-10-26T02:50:26;9.93;;;7.45;;
54823;SDS011;40724;53.196;5.980;2022-10-26T02:53:04;10.68;;;8.00;;
54823;SDS011;40724;53.196;5.980;2022-10-26T02:55:33;9.32;;;5.88;;
54823;SDS011;40724;53.196;5.980;2022-10-26T02:58:10;10.52;;;7.03;;
54823;SDS011;40724;53.196;5.980;2022-10-26T03:00:41;11.77;;;7.65;;
54823;SDS011;40724;53.196;5.980;2022-10-26T03:03:07;13.60;;;7.10;;
54823;SDS011;40724;53.196;5.980;2022-10-26T03:05:34;14.68;;;8.00;;
54823;SDS011;40724;53.196;5.980;2022-10-26T03:08:01;18.23;;;8.80;;
54823;SDS011;40724;53.196;5.980;2022-10-26T03:10:27;12.88;;;7.25;;
54823;SDS011;40724;53.196;5.980;2022-10-26T03:12:53;11.23;;;7.45;;
54823;SDS011;40724;53.196;5.980;2022-10-26T03:15:19;13.48;;;8.07;;
54823;SDS011;40724;53.196;5.980;2022-10-26T03:17:46;11.13;;;7.75;;
54823;SDS011;40724;53.196;5.980;2022-10-26T03:20:12;13.70;;;7.00;;
54823;SDS011;40724;53.196;5.980;2022-10-26T03:22:38;13.63;;;8.48;;
54823;SDS011;40724;53.196;5.980;2022-10-26T03:25:04;14.13;;;8.73;;
54823;SDS011;40724;53.196;5.980;2022-10-26T03:27:30;16.23;;;8.68;;
54823;SDS011;40724;53.196;5.980;2022-10-26T03:29:57;13.77;;;7.95;;
54823;SDS011;40724;53.196;5.980;2022-10-26T03:32:23;11.88;;;7.90;;
54823;SDS011;40724;53.196;5.980;2022-10-26T03:34:49;13.82;;;9.15;;
54823;SDS011;40724;53.196;5.980;2022-10-26T03:37:15;11.88;;;9.02;;
54823;SDS011;40724;53.196;5.980;2022-10-26T03:39:41;15.85;;;10.63;;
54823;SDS011;40724;53.196;5.980;2022-10-26T03:42:07;14.60;;;10.25;;
54823;SDS011;40724;53.196;5.980;2022-10-26T03:44:33;16.90;;;9.50;;
54823;SDS011;40724;53.196;5.980;2022-10-26T03:46:59;13.65;;;9.63;;
54823;SDS011;40724;53.196;5.980;2022-10-26T03:49:25;15.85;;;10.13;;
54823;SDS011;40724;53.196;5.980;2022-10-26T03:51:51;18.25;;;10.68;;
54823;SDS011;40724;53.196;5.980;2022-10-26T03:54:17;13.27;;;11.25;;
54823;SDS011;40724;53.196;5.980;2022-10-26T03:56:43;17.33;;;10.98;;
54823;SDS011;40724;53.196;5.980;2022-10-26T03:59:09;15.68;;;10.25;;
54823;SDS011;40724;53.196;5.980;2022-10-26T04:01:36;14.70;;;9.95;;
54823;SDS011;40724;53.196;5.980;2022-10-26T04:04:02;13.80;;;10.35;;
54823;SDS011;40724;53.196;5.980;2022-10-26T04:06:28;20.80;;;12.45;;
54823;SDS011;40724;53.196;5.980;2022-10-26T04:08:55;13.57;;;10.45;;
54823;SDS011;40724;53.196;5.980;2022-10-26T04:11:26;19.20;;;11.55;;
54823;SDS011;40724;53.196;5.980;2022-10-26T04:13:52;14.98;;;10.70;;
54823;SDS011;40724;53.196;5.980;2022-10-26T04:16:19;14.35;;;10.95;;
54823;SDS011;40724;53.196;5.980;2022-10-26T04:18:45;23.50;;;11.48;;
54823;SDS011;40724;53.196;5.980;2022-10-26T04:21:11;17.65;;;11.55;;
54823;SDS011;40724;53.196;5.980;2022-10-26T04:23:38;13.23;;;10.93;;
54823;SDS011;40724;53.196;5.980;2022-10-26T04:26:04;14.45;;;10.48;;
54823;SDS011;40724;53.196;5.980;2022-10-26T04:28:30;15.73;;;11.45;;
54823;SDS011;40724;53.196;5.980;2022-10-26T04:30:56;16.52;;;11.15;;
54823;SDS011;40724;53.196;5.980;2022-10-26T04:33:22;15.07;;;10.73;;
54823;SDS011;40724;53.196;5.980;2022-10-26T04:35:48;18.35;;;10.68;;
54823;SDS011;40724;53.196;5.980;2022-10-26T04:38:14;17.42;;;11.38;;
54823;SDS011;40724;53.196;5.980;2022-10-26T04:40:40;24.30;;;12.27;;
54823;SDS011;40724;53.196;5.980;2022-10-26T04:43:07;14.15;;;10.18;;
54823;SDS011;40724;53.196;5.980;2022-10-26T04:45:33;17.33;;;11.52;;
54823;SDS011;40724;53.196;5.980;2022-10-26T04:48:00;14.25;;;10.65;;
54823;SDS011;40724;53.196;5.980;2022-10-26T04:50:26;17.48;;;11.00;;
54823;SDS011;40724;53.196;5.980;2022-10-26T04:52:52;18.60;;;11.98;;
54823;SDS011;40724;53.196;5.980;2022-10-26T04:55:18;16.30;;;11.00;;
54823;SDS011;40724;53.196;5.980;2022-10-26T04:57:45;15.35;;;10.77;;
54823;SDS011;40724;53.196;5.980;2022-10-26T05:00:11;15.50;;;11.85;;
54823;SDS011;40724;53.196;5.980;2022-10-26T05:02:37;20.05;;;12.40;;
54823;SDS011;40724;53.196;5.980;2022-10-26T05:05:03;18.25;;;11.88;;
54823;SDS011;40724;53.196;5.980;2022-10-26T05:07:29;15.00;;;10.45;;
54823;SDS011;40724;53.196;5.980;2022-10-26T05:09:55;19.63;;;12.63;;
54823;SDS011;40724;53.196;5.980;2022-10-26T05:12:21;20.60;;;10.70;;
54823;SDS011;40724;53.196;5.980;2022-10-26T05:14:48;14.75;;;11.32;;
54823;SDS011;40724;53.196;5.980;2022-10-26T05:17:14;15.43;;;11.73;;
54823;SDS011;40724;53.196;5.980;2022-10-26T05:19:40;16.08;;;11.13;;
54823;SDS011;40724;53.196;5.980;2022-10-26T05:22:06;19.33;;;12.40;;
54823;SDS011;40724;53.196;5.980;2022-10-26T05:24:32;18.45;;;11.23;;
54823;SDS011;40724;53.196;5.980;2022-10-26T05:26:58;16.50;;;12.02;;
54823;SDS011;40724;53.196;5.980;2022-10-26T05:29:25;12.40;;;10.18;;
54823;SDS011;40724;53.196;5.980;2022-10-26T05:31:51;15.60;;;11.05;;
54823;SDS011;40724;53.196;5.980;2022-10-26T05:34:17;14.98;;;11.73;;
54823;SDS011;40724;53.196;5.980;2022-10-26T05:36:43;20.58;;;11.65;;
54823;SDS011;40724;53.196;5.980;2022-10-26T05:39:09;21.77;;;11.40;;
54823;SDS011;40724;53.196;5.980;2022-10-26T05:41:35;18.55;;;10.88;;
54823;SDS011;40724;53.196;5.980;2022-10-26T05:44:01;17.13;;;10.88;;
54823;SDS011;40724;53.196;5.980;2022-10-26T05:46:27;24.50;;;11.90;;
54823;SDS011;40724;53.196;5.980;2022-10-26T05:48:53;14.98;;;10.77;;
54823;SDS011;40724;53.196;5.980;2022-10-26T05:51:19;19.13;;;11.63;;
54823;SDS011;40724;53.196;5.980;2022-10-26T05:53:46;15.35;;;10.88;;
54823;SDS011;40724;53.196;5.980;2022-10-26T05:56:15;11.73;;;9.40;;
54823;SDS011;40724;53.196;5.980;2022-10-26T05:58:42;17.27;;;12.15;;
54823;SDS011;40724;53.196;5.980;2022-10-26T06:06:20;20.10;;;12.57;;
54823;SDS011;40724;53.196;5.980;2022-10-26T06:08:47;17.90;;;11.00;;
54823;SDS011;40724;53.196;5.980;2022-10-26T06:11:13;16.30;;;10.68;;
54823;SDS011;40724;53.196;5.980;2022-10-26T06:13:39;17.27;;;10.77;;
54823;SDS011;40724;53.196;5.980;2022-10-26T06:16:25;19.10;;;11.70;;
54823;SDS011;40724;53.196;5.980;2022-10-26T06:21:42;14.73;;;9.82;;
54823;SDS011;40724;53.196;5.980;2022-10-26T06:24:12;16.42;;;10.38;;
54823;SDS011;40724;53.196;5.980;2022-10-26T06:26:46;15.00;;;10.07;;
54823;SDS011;40724;53.196;5.980;2022-10-26T06:29:21;15.98;;;9.98;;
54823;SDS011;40724;53.196;5.980;2022-10-26T06:31:49;22.83;;;11.50;;
54823;SDS011;40724;53.196;5.980;2022-10-26T06:34:26;16.33;;;10.73;;
54823;SDS011;40724;53.196;5.980;2022-10-26T06:36:54;16.05;;;10.10;;
54823;SDS011;40724;53.196;5.980;2022-10-26T06:39:22;16.90;;;10.85;;
54823;SDS011;40724;53.196;5.980;2022-10-26T06:41:50;14.35;;;11.00;;
54823;SDS011;40724;53.196;5.980;2022-10-26T06:44:20;16.02;;;10.00;;
54823;SDS011;40724;53.196;5.980;2022-10-26T06:46:56;16.83;;;10.32;;
54823;SDS011;40724;53.196;5.980;2022-10-26T06:57:03;15.23;;;9.75;;
54823;SDS011;40724;53.196;5.980;2022-10-26T06:59:39;17.35;;;9.50;;
54823;SDS011;40724;53.196;5.980;2022-10-26T07:02:08;17.73;;;10.32;;
54823;SDS011;40724;53.196;5.980;2022-10-26T07:04:34;23.15;;;10.60;;
54823;SDS011;40724;53.196;5.980;2022-10-26T07:07:01;15.75;;;11.05;;
54823;SDS011;40724;53.196;5.980;2022-10-26T07:09:27;24.08;;;10.68;;
54823;SDS011;40724;53.196;5.980;2022-10-26T07:11:53;21.90;;;11.38;;
54823;SDS011;40724;53.196;5.980;2022-10-26T07:14:19;14.40;;;10.30;;
54823;SDS011;40724;53.196;5.980;2022-10-26T07:16:45;16.27;;;11.77;;
54823;SDS011;40724;53.196;5.980;2022-10-26T07:19:11;15.57;;;10.27;;
54823;SDS011;40724;53.196;5.980;2022-10-26T07:21:37;19.42;;;10.23;;
54823;SDS011;40724;53.196;5.980;2022-10-26T07:24:03;22.45;;;11.02;;
54823;SDS011;40724;53.196;5.980;2022-10-26T07:26:29;17.27;;;10.82;;
54823;SDS011;40724;53.196;5.980;2022-10-26T07:28:55;17.42;;;9.82;;
54823;SDS011;40724;53.196;5.980;2022-10-26T07:31:22;16.92;;;9.18;;
54823;SDS011;40724;53.196;5.980;2022-10-26T07:33:48;14.95;;;9.98;;
54823;SDS011;40724;53.196;5.980;2022-10-26T07:36:14;14.63;;;8.05;;
54823;SDS011;40724;53.196;5.980;2022-10-26T07:38:40;16.38;;;9.40;;
54823;SDS011;40724;53.196;5.980;2022-10-26T07:41:06;17.13;;;8.90;;
54823;SDS011;40724;53.196;5.980;2022-10-26T07:43:32;13.55;;;8.73;;
54823;SDS011;40724;53.196;5.980;2022-10-26T07:45:58;12.20;;;8.60;;
54823;SDS011;40724;53.196;5.980;2022-10-26T07:48:25;13.60;;;9.40;;
54823;SDS011;40724;53.196;5.980;2022-10-26T07:50:51;12.23;;;8.73;;
54823;SDS011;40724;53.196;5.980;2022-10-26T07:53:17;13.80;;;8.02;;
54823;SDS011;40724;53.196;5.980;2022-10-26T07:55:50;17.45;;;9.90;;
54823;SDS011;40724;53.196;5.980;2022-10-26T07:58:16;13.50;;;8.35;;
54823;SDS011;40724;53.196;5.980;2022-10-26T08:00:47;11.60;;;7.80;;
54823;SDS011;40724;53.196;5.980;2022-10-26T08:03:13;13.43;;;8.38;;
54823;SDS011;40724;53.196;5.980;2022-10-26T08:05:40;14.18;;;7.93;;
54823;SDS011;40724;53.196;5.980;2022-10-26T08:08:06;12.27;;;7.75;;
54823;SDS011;40724;53.196;5.980;2022-10-26T08:10:32;11.73;;;7.60;;
54823;SDS011;40724;53.196;5.980;2022-10-26T08:12:58;16.27;;;7.63;;
54823;SDS011;40724;53.196;5.980;2022-10-26T08:15:24;13.80;;;7.60;;
54823;SDS011;40724;53.196;5.980;2022-10-26T08:17:51;11.80;;;8.13;;
54823;SDS011;40724;53.196;5.980;2022-10-26T08:20:17;7.82;;;5.80;;
54823;SDS011;40724;53.196;5.980;2022-10-26T08:22:43;9.05;;;6.53;;
54823;SDS011;40724;53.196;5.980;2022-10-26T08:25:09;10.07;;;6.20;;
54823;SDS011;40724;53.196;5.980;2022-10-26T08:27:35;11.68;;;6.35;;
54823;SDS011;40724;53.196;5.980;2022-10-26T08:30:01;11.85;;;6.93;;
54823;SDS011;40724;53.196;5.980;2022-10-26T08:32:27;14.98;;;7.22;;
54823;SDS011;40724;53.196;5.980;2022-10-26T08:34:53;12.52;;;6.30;;
54823;SDS011;40724;53.196;5.980;2022-10-26T08:37:19;9.07;;;6.35;;
54823;SDS011;40724;53.196;5.980;2022-10-26T08:39:46;7.85;;;6.03;;
54823;SDS011;40724;53.196;5.980;2022-10-26T08:42:14;10.98;;;5.65;;
54823;SDS011;40724;53.196;5.980;2022-10-26T08:44:45;12.40;;;6.13;;
54823;SDS011;40724;53.196;5.980;2022-10-26T08:47:19;8.77;;;5.10;;
54823;SDS011;40724;53.196;5.980;2022-10-26T08:52:52;10.48;;;5.95;;
54823;SDS011;40724;53.196;5.980;2022-10-26T08:55:30;7.43;;;5.65;;
54823;SDS011;40724;53.196;5.980;2022-10-26T08:57:58;9.50;;;6.60;;
54823;SDS011;40724;53.196;5.980;2022-10-26T09:00:26;9.43;;;5.68;;
54823;SDS011;40724;53.196;5.980;2022-10-26T09:02:54;8.52;;;6.25;;
54823;SDS011;40724;53.196;5.980;2022-10-26T09:05:27;8.82;;;5.38;;
54823;SDS011;40724;53.196;5.980;2022-10-26T09:10:35;10.38;;;5.55;;
54823;SDS011;40724;53.196;5.980;2022-10-26T09:15:36;11.63;;;4.88;;
54823;SDS011;40724;53.196;5.980;2022-10-26T09:25:37;12.05;;;4.70;;
54823;SDS011;40724;53.196;5.980;2022-10-26T09:28:03;8.77;;;5.13;;
54823;SDS011;40724;53.196;5.980;2022-10-26T09:30:32;8.27;;;4.85;;
54823;SDS011;40724;53.196;5.980;2022-10-26T09:33:01;7.78;;;4.93;;
54823;SDS011;40724;53.196;5.980;2022-10-26T09:38:15;8.50;;;4.75;;
54823;SDS011;40724;53.196;5.980;2022-10-26T09:41:11;9.20;;;5.03;;
54823;SDS011;40724;53.196;5.980;2022-10-26T09:46:28;7.05;;;5.22;;
54823;SDS011;40724;53.196;5.980;2022-10-26T09:49:07;11.00;;;5.45;;
54823;SDS011;40724;53.196;5.980;2022-10-26T09:51:37;8.02;;;5.45;;
54823;SDS011;40724;53.196;5.980;2022-10-26T09:54:06;8.50;;;4.97;;
54823;SDS011;40724;53.196;5.980;2022-10-26T09:56:38;9.38;;;5.25;;
54823;SDS011;40724;53.196;5.980;2022-10-26T09:59:05;7.10;;;4.53;;
54823;SDS011;40724;53.196;5.980;2022-10-26T10:01:32;5.45;;;4.60;;
54823;SDS011;40724;53.196;5.980;2022-10-26T10:06:44;7.38;;;4.53;;
54823;SDS011;40724;53.196;5.980;2022-10-26T10:09:12;8.05;;;4.82;;
54823;SDS011;40724;53.196;5.980;2022-10-26T10:14:19;7.70;;;4.28;;
54823;SDS011;40724;53.196;5.980;2022-10-26T10:16:59;7.22;;;3.47;;
54823;SDS011;40724;53.196;5.980;2022-10-26T10:22:08;8.70;;;3.70;;
54823;SDS011;40724;53.196;5.980;2022-10-26T10:24:37;7.85;;;3.40;;
54823;SDS011;40724;53.196;5.980;2022-10-26T10:29:41;5.88;;;3.53;;
54823;SDS011;40724;53.196;5.980;2022-10-26T10:32:10;7.22;;;3.92;;
54823;SDS011;40724;53.196;5.980;2022-10-26T10:34:39;5.80;;;3.67;;
54823;SDS011;40724;53.196;5.980;2022-10-26T10:37:05;7.57;;;3.60;;
54823;SDS011;40724;53.196;5.980;2022-10-26T10:39:35;6.53;;;4.22;;
54823;SDS011;40724;53.196;5.980;2022-10-26T10:42:10;9.55;;;4.05;;
54823;SDS011;40724;53.196;5.980;2022-10-26T10:44:38;4.90;;;3.80;;
54823;SDS011;40724;53.196;5.980;2022-10-26T10:47:05;7.65;;;4.00;;
54823;SDS011;40724;53.196;5.980;2022-10-26T10:49:32;6.45;;;3.85;;
54823;SDS011;40724;53.196;5.980;2022-10-26T10:51:58;5.00;;;3.40;;
54823;SDS011;40724;53.196;5.980;2022-10-26T10:54:31;8.95;;;3.97;;
54823;SDS011;40724;53.196;5.980;2022-10-26T10:57:20;8.23;;;3.70;;
54823;SDS011;40724;53.196;5.980;2022-10-26T11:00:01;9.47;;;3.27;;
54823;SDS011;40724;53.196;5.980;2022-10-26T11:07:46;4.63;;;3.08;;
54823;SDS011;40724;53.196;5.980;2022-10-26T11:10:15;10.45;;;4.30;;
54823;SDS011;40724;53.196;5.980;2022-10-26T11:12:45;8.25;;;3.60;;
54823;SDS011;40724;53.196;5.980;2022-10-26T11:15:19;6.80;;;3.35;;
54823;SDS011;40724;53.196;5.980;2022-10-26T11:17:51;7.88;;;3.53;;
54823;SDS011;40724;53.196;5.980;2022-10-26T11:20:21;6.60;;;4.25;;
54823;SDS011;40724;53.196;5.980;2022-10-26T11:25:21;5.13;;;3.33;;
54823;SDS011;40724;53.196;5.980;2022-10-26T11:27:53;6.43;;;3.42;;
54823;SDS011;40724;53.196;5.980;2022-10-26T11:30:21;10.30;;;4.75;;
54823;SDS011;40724;53.196;5.980;2022-10-26T11:35:17;8.70;;;3.65;;
54823;SDS011;40724;53.196;5.980;2022-10-26T11:37:50;7.25;;;3.53;;
54823;SDS011;40724;53.196;5.980;2022-10-26T11:42:51;9.98;;;3.85;;
54823;SDS011;40724;53.196;5.980;2022-10-26T11:45:38;5.25;;;3.20;;
54823;SDS011;40724;53.196;5.980;2022-10-26T11:50:55;11.45;;;3.78;;
54823;SDS011;40724;53.196;5.980;2022-10-26T11:53:24;7.80;;;3.70;;
54823;SDS011;40724;53.196;5.980;2022-10-26T11:55:54;7.80;;;4.80;;
54823;SDS011;40724;53.196;5.980;2022-10-26T11:58:25;6.68;;;3.83;;
54823;SDS011;40724;53.196;5.980;2022-10-26T12:00:54;8.48;;;4.03;;
54823;SDS011;40724;53.196;5.980;2022-10-26T12:03:25;6.10;;;3.63;;
54823;SDS011;40724;53.196;5.980;2022-10-26T12:05:52;8.27;;;3.85;;
54823;SDS011;40724;53.196;5.980;2022-10-26T12:13:34;8.38;;;4.47;;
54823;SDS011;40724;53.196;5.980;2022-10-26T12:16:05;7.82;;;4.43;;
54823;SDS011;40724;53.196;5.980;2022-10-26T12:18:55;7.43;;;3.93;;
54823;SDS011;40724;53.196;5.980;2022-10-26T12:21:24;9.65;;;4.93;;
54823;SDS011;40724;53.196;5.980;2022-10-26T12:23:52;12.60;;;4.45;;
54823;SDS011;40724;53.196;5.980;2022-10-26T12:28:48;6.78;;;4.32;;
54823;SDS011;40724;53.196;5.980;2022-10-26T12:34:03;7.95;;;3.83;;
54823;SDS011;40724;53.196;5.980;2022-10-26T12:36:46;12.23;;;5.05;;
54823;SDS011;40724;53.196;5.980;2022-10-26T12:47:11;8.98;;;5.22;;
54823;SDS011;40724;53.196;5.980;2022-10-26T13:08:41;7.05;;;5.00;;
54823;SDS011;40724;53.196;5.980;2022-10-26T13:11:14;10.23;;;5.10;;
54823;SDS011;40724;53.196;5.980;2022-10-26T13:13:41;9.07;;;5.10;;
54823;SDS011;40724;53.196;5.980;2022-10-26T13:16:11;6.88;;;5.00;;
54823;SDS011;40724;53.196;5.980;2022-10-26T13:18:41;9.98;;;4.80;;
54823;SDS011;40724;53.196;5.980;2022-10-26T13:21:09;9.25;;;4.88;;
54823;SDS011;40724;53.196;5.980;2022-10-26T13:23:39;7.47;;;4.28;;
54823;SDS011;40724;53.196;5.980;2022-10-26T13:26:07;8.07;;;5.15;;
54823;SDS011;40724;53.196;5.980;2022-10-26T13:31:02;10.50;;;5.45;;
54823;SDS011;40724;53.196;5.980;2022-10-26T13:33:35;7.75;;;5.50;;
54823;SDS011;40724;53.196;5.980;2022-10-26T13:36:09;10.23;;;5.95;;
54823;SDS011;40724;53.196;5.980;2022-10-26T13:38:39;9.07;;;4.93;;
54823;SDS011;40724;53.196;5.980;2022-10-26T13:41:06;9.05;;;5.18;;
54823;SDS011;40724;53.196;5.980;2022-10-26T13:43:36;14.93;;;5.95;;
54823;SDS011;40724;53.196;5.980;2022-10-26T13:46:03;9.38;;;5.07;;
54823;SDS011;40724;53.196;5.980;2022-10-26T13:48:35;8.75;;;4.38;;
54823;SDS011;40724;53.196;5.980;2022-10-26T13:51:03;6.07;;;4.30;;
54823;SDS011;40724;53.196;5.980;2022-10-26T13:53:40;10.35;;;4.60;;
54823;SDS011;40724;53.196;5.980;2022-10-26T13:58:48;7.65;;;4.65;;
54823;SDS011;40724;53.196;5.980;2022-10-26T14:01:16;10.90;;;4.13;;
54823;SDS011;40724;53.196;5.980;2022-10-26T14:03:45;8.75;;;4.72;;
54823;SDS011;40724;53.196;5.980;2022-10-26T14:06:14;7.43;;;4.47;;
54823;SDS011;40724;53.196;5.980;2022-10-26T14:08:41;6.93;;;4.80;;
54823;SDS011;40724;53.196;5.980;2022-10-26T14:11:12;8.88;;;4.28;;
54823;SDS011;40724;53.196;5.980;2022-10-26T14:13:39;8.60;;;4.50;;
54823;SDS011;40724;53.196;5.980;2022-10-26T14:16:08;6.25;;;4.50;;
54823;SDS011;40724;53.196;5.980;2022-10-26T14:18:35;12.05;;;4.40;;
54823;SDS011;40724;53.196;5.980;2022-10-26T14:21:03;8.10;;;3.92;;
54823;SDS011;40724;53.196;5.980;2022-10-26T14:23:34;9.90;;;4.38;;
54823;SDS011;40724;53.196;5.980;2022-10-26T14:26:00;6.53;;;4.05;;
54823;SDS011;40724;53.196;5.980;2022-10-26T14:28:27;9.85;;;4.55;;
54823;SDS011;40724;53.196;5.980;2022-10-26T14:30:53;9.45;;;3.75;;
54823;SDS011;40724;53.196;5.980;2022-10-26T14:33:35;8.27;;;4.32;;
54823;SDS011;40724;53.196;5.980;2022-10-26T14:36:01;7.20;;;4.18;;
54823;SDS011;40724;53.196;5.980;2022-10-26T14:38:27;5.85;;;3.55;;
54823;SDS011;40724;53.196;5.980;2022-10-26T14:40:56;7.75;;;3.58;;
54823;SDS011;40724;53.196;5.980;2022-10-26T14:43:23;5.53;;;3.28;;
54823;SDS011;40724;53.196;5.980;2022-10-26T14:45:50;6.60;;;4.07;;
54823;SDS011;40724;53.196;5.980;2022-10-26T14:48:22;7.32;;;4.13;;
54823;SDS011;40724;53.196;5.980;2022-10-26T14:50:58;7.93;;;4.72;;
54823;SDS011;40724;53.196;5.980;2022-10-26T14:53:29;10.07;;;3.42;;
54823;SDS011;40724;53.196;5.980;2022-10-26T14:55:56;6.13;;;3.55;;
54823;SDS011;40724;53.196;5.980;2022-10-26T14:58:26;5.75;;;3.15;;
54823;SDS011;40724;53.196;5.980;2022-10-26T15:03:37;10.40;;;3.60;;
54823;SDS011;40724;53.196;5.980;2022-10-26T15:08:52;6.60;;;4.40;;
54823;SDS011;40724;53.196;5.980;2022-10-26T15:11:18;8.40;;;4.60;;
54823;SDS011;40724;53.196;5.980;2022-10-26T15:13:45;8.15;;;4.18;;
54823;SDS011;40724;53.196;5.980;2022-10-26T15:16:15;6.13;;;4.05;;
54823;SDS011;40724;53.196;5.980;2022-10-26T15:18:45;8.70;;;4.40;;
54823;SDS011;40724;53.196;5.980;2022-10-26T15:21:32;7.15;;;4.18;;
54823;SDS011;40724;53.196;5.980;2022-10-26T15:23:59;8.60;;;4.47;;
54823;SDS011;40724;53.196;5.980;2022-10-26T15:26:25;5.43;;;4.50;;
54823;SDS011;40724;53.196;5.980;2022-10-26T15:28:53;9.98;;;4.63;;
54823;SDS011;40724;53.196;5.980;2022-10-26T15:36:16;6.22;;;3.55;;
54823;SDS011;40724;53.196;5.980;2022-10-26T15:38:43;8.38;;;4.65;;
54823;SDS011;40724;53.196;5.980;2022-10-26T15:43:38;7.90;;;4.63;;
54823;SDS011;40724;53.196;5.980;2022-10-26T15:46:04;6.82;;;4.18;;
54823;SDS011;40724;53.196;5.980;2022-10-26T15:48:30;11.82;;;6.20;;
54823;SDS011;40724;53.196;5.980;2022-10-26T15:50:58;7.90;;;4.40;;
54823;SDS011;40724;53.196;5.980;2022-10-26T15:53:25;7.97;;;5.20;;
54823;SDS011;40724;53.196;5.980;2022-10-26T15:55:52;10.02;;;5.40;;
54823;SDS011;40724;53.196;5.980;2022-10-26T15:58:18;10.07;;;5.68;;
54823;SDS011;40724;53.196;5.980;2022-10-26T16:00:45;11.88;;;6.82;;
54823;SDS011;40724;53.196;5.980;2022-10-26T16:03:12;8.18;;;5.88;;
54823;SDS011;40724;53.196;5.980;2022-10-26T16:05:39;6.63;;;5.35;;
54823;SDS011;40724;53.196;5.980;2022-10-26T16:08:07;8.45;;;5.35;;
54823;SDS011;40724;53.196;5.980;2022-10-26T16:10:33;8.05;;;5.57;;
54823;SDS011;40724;53.196;5.980;2022-10-26T16:12:59;7.43;;;5.68;;
54823;SDS011;40724;53.196;5.980;2022-10-26T16:15:25;7.97;;;5.70;;
54823;SDS011;40724;53.196;5.980;2022-10-26T16:17:51;8.15;;;5.28;;
54823;SDS011;40724;53.196;5.980;2022-10-26T16:20:18;8.23;;;6.10;;
54823;SDS011;40724;53.196;5.980;2022-10-26T16:22:47;8.90;;;5.38;;
54823;SDS011;40724;53.196;5.980;2022-10-26T16:25:14;8.25;;;4.95;;
54823;SDS011;40724;53.196;5.980;2022-10-26T16:27:40;9.48;;;5.07;;
54823;SDS011;40724;53.196;5.980;2022-10-26T16:30:06;6.20;;;5.32;;
54823;SDS011;40724;53.196;5.980;2022-10-26T16:32:33;9.65;;;6.32;;
54823;SDS011;40724;53.196;5.980;2022-10-26T16:34:59;10.52;;;6.30;;
54823;SDS011;40724;53.196;5.980;2022-10-26T16:37:27;13.75;;;5.50;;
54823;SDS011;40724;53.196;5.980;2022-10-26T16:39:53;10.65;;;5.95;;
54823;SDS011;40724;53.196;5.980;2022-10-26T16:42:19;11.18;;;5.93;;
54823;SDS011;40724;53.196;5.980;2022-10-26T16:44:45;7.10;;;5.30;;
54823;SDS011;40724;53.196;5.980;2022-10-26T16:47:11;8.98;;;6.80;;
54823;SDS011;40724;53.196;5.980;2022-10-26T16:49:37;9.43;;;6.60;;
54823;SDS011;40724;53.196;5.980;2022-10-26T16:52:07;10.05;;;7.22;;
54823;SDS011;40724;53.196;5.980;2022-10-26T16:54:34;9.65;;;7.05;;
54823;SDS011;40724;53.196;5.980;2022-10-26T16:57:00;9.30;;;7.57;;
54823;SDS011;40724;53.196;5.980;2022-10-26T16:59:26;13.55;;;7.47;;
54823;SDS011;40724;53.196;5.980;2022-10-26T17:01:52;13.23;;;8.13;;
54823;SDS011;40724;53.196;5.980;2022-10-26T17:04:18;12.70;;;8.30;;
54823;SDS011;40724;53.196;5.980;2022-10-26T17:06:44;10.18;;;8.23;;
54823;SDS011;40724;53.196;5.980;2022-10-26T17:09:10;8.85;;;7.93;;
54823;SDS011;40724;53.196;5.980;2022-10-26T17:11:36;11.82;;;8.20;;